sensor_id;sensor_type;location;lat;lon;timestamp;P1;durP1;ratioP1;P2;durP2;ratioP2
13051;SDS011;6592;47.484;9.726;2022-09-01T00:00:43;7.43;;;5.07;;
13051;SDS011;6592;47.484;9.726;2022-09-01T00:03:15;8.77;;;4.78;;
13051;SDS011;6592;47.484;9.726;2022-09-01T00:05:44;6.00;;;4.72;;
13051;SDS011;6592;47.484;9.726;2022-09-01T00:08:17;6.30;;;5.07;;
13051;SDS011;6592;47.484;9.726;2022-09-01T00:10:46;7.13;;;5.18;;
13051;SDS011;6592;47.484;9.726;2022-09-01T00:13:15;6.88;;;5.18;;
13051;SDS011;6592;47.484;9.726;2022-09-01T00:15:44;7.88;;;5.20;;
13051;SDS011;6592;47.484;9.726;2022-09-01T00:18:12;9.05;;;5.00;;
13051;SDS011;6592;47.484;9.726;2022-09-01T00:20:41;8.13;;;5.00;;
13051;SDS011;6592;47.484;9.726;2022-09-01T00:23:09;8.85;;;5.28;;
13051;SDS011;6592;47.484;9.726;2022-09-01T00:25:39;6.47;;;5.28;;
13051;SDS011;6592;47.484;9.726;2022-09-01T00:28:08;6.35;;;5.10;;
13051;SDS011;6592;47.484;9.726;2022-09-01T00:30:36;8.05;;;4.82;;
13051;SDS011;6592;47.484;9.726;2022-09-01T00:33:05;6.53;;;4.95;;
13051;SDS011;6592;47.484;9.726;2022-09-01T00:35:33;10.07;;;4.65;;
13051;SDS011;6592;47.484;9.726;2022-09-01T00:38:02;6.13;;;4.78;;
13051;SDS011;6592;47.484;9.726;2022-09-01T00:40:31;6.65;;;4.57;;
13051;SDS011;6592;47.484;9.726;2022-09-01T00:43:01;7.75;;;4.50;;
13051;SDS011;6592;47.484;9.726;2022-09-01T00:45:40;7.40;;;4.53;;
13051;SDS011;6592;47.484;9.726;2022-09-01T00:48:08;7.43;;;4.47;;
13051;SDS011;6592;47.484;9.726;2022-09-01T00:50:38;6.25;;;4.40;;
13051;SDS011;6592;47.484;9.726;2022-09-01T00:53:12;7.00;;;4.72;;
13051;SDS011;6592;47.484;9.726;2022-09-01T00:55:41;7.45;;;4.35;;
13051;SDS011;6592;47.484;9.726;2022-09-01T00:58:11;5.55;;;4.15;;
13051;SDS011;6592;47.484;9.726;2022-09-01T01:00:45;6.00;;;3.85;;
13051;SDS011;6592;47.484;9.726;2022-09-01T01:03:18;5.75;;;4.32;;
13051;SDS011;6592;47.484;9.726;2022-09-01T01:05:48;5.40;;;4.43;;
13051;SDS011;6592;47.484;9.726;2022-09-01T01:08:20;6.10;;;4.03;;
13051;SDS011;6592;47.484;9.726;2022-09-01T01:10:59;6.25;;;4.72;;
13051;SDS011;6592;47.484;9.726;2022-09-01T01:13:30;7.85;;;4.45;;
13051;SDS011;6592;47.484;9.726;2022-09-01T01:16:01;7.97;;;4.72;;
13051;SDS011;6592;47.484;9.726;2022-09-01T01:18:33;6.95;;;4.80;;
13051;SDS011;6592;47.484;9.726;2022-09-01T01:21:03;8.25;;;4.30;;
13051;SDS011;6592;47.484;9.726;2022-09-01T01:23:53;10.15;;;4.70;;
13051;SDS011;6592;47.484;9.726;2022-09-01T01:26:30;6.57;;;4.15;;
13051;SDS011;6592;47.484;9.726;2022-09-01T01:28:59;6.90;;;4.82;;
13051;SDS011;6592;47.484;9.726;2022-09-01T01:31:29;6.00;;;4.72;;
13051;SDS011;6592;47.484;9.726;2022-09-01T01:33:57;6.22;;;4.80;;
13051;SDS011;6592;47.484;9.726;2022-09-01T01:36:29;6.93;;;4.70;;
13051;SDS011;6592;47.484;9.726;2022-09-01T01:38:59;7.63;;;5.40;;
13051;SDS011;6592;47.484;9.726;2022-09-01T01:41:32;5.80;;;4.38;;
13051;SDS011;6592;47.484;9.726;2022-09-01T01:44:02;6.10;;;4.90;;
13051;SDS011;6592;47.484;9.726;2022-09-01T01:46:31;8.48;;;4.65;;
13051;SDS011;6592;47.484;9.726;2022-09-01T01:49:01;8.27;;;4.40;;
13051;SDS011;6592;47.484;9.726;2022-09-01T01:51:30;5.55;;;4.70;;
13051;SDS011;6592;47.484;9.726;2022-09-01T01:53:59;6.55;;;4.82;;
13051;SDS011;6592;47.484;9.726;2022-09-01T01:56:33;6.75;;;4.75;;
13051;SDS011;6592;47.484;9.726;2022-09-01T01:59:05;9.20;;;4.97;;
13051;SDS011;6592;47.484;9.726;2022-09-01T02:01:36;7.05;;;5.00;;
13051;SDS011;6592;47.484;9.726;2022-09-01T02:04:04;7.22;;;5.03;;
13051;SDS011;6592;47.484;9.726;2022-09-01T02:06:33;6.72;;;4.85;;
13051;SDS011;6592;47.484;9.726;2022-09-01T02:09:02;8.45;;;5.13;;
13051;SDS011;6592;47.484;9.726;2022-09-01T02:11:30;7.22;;;5.50;;
13051;SDS011;6592;47.484;9.726;2022-09-01T02:14:03;7.70;;;5.38;;
13051;SDS011;6592;47.484;9.726;2022-09-01T02:16:33;7.20;;;5.68;;
13051;SDS011;6592;47.484;9.726;2022-09-01T02:19:03;6.90;;;5.32;;
13051;SDS011;6592;47.484;9.726;2022-09-01T02:24:03;6.75;;;5.22;;
13051;SDS011;6592;47.484;9.726;2022-09-01T02:26:36;7.35;;;5.43;;
13051;SDS011;6592;47.484;9.726;2022-09-01T02:29:10;8.43;;;5.55;;
13051;SDS011;6592;47.484;9.726;2022-09-01T02:31:45;6.43;;;5.03;;
13051;SDS011;6592;47.484;9.726;2022-09-01T02:34:15;5.78;;;4.78;;
13051;SDS011;6592;47.484;9.726;2022-09-01T02:36:44;6.22;;;4.50;;
13051;SDS011;6592;47.484;9.726;2022-09-01T02:39:14;7.73;;;4.97;;
13051;SDS011;6592;47.484;9.726;2022-09-01T02:41:45;8.57;;;5.00;;
13051;SDS011;6592;47.484;9.726;2022-09-01T02:44:14;11.52;;;4.95;;
13051;SDS011;6592;47.484;9.726;2022-09-01T02:46:47;10.50;;;5.00;;
13051;SDS011;6592;47.484;9.726;2022-09-01T02:49:17;6.90;;;4.60;;
13051;SDS011;6592;47.484;9.726;2022-09-01T02:51:50;7.75;;;4.97;;
13051;SDS011;6592;47.484;9.726;2022-09-01T02:54:20;8.98;;;5.63;;
13051;SDS011;6592;47.484;9.726;2022-09-01T02:56:51;9.32;;;5.05;;
13051;SDS011;6592;47.484;9.726;2022-09-01T02:59:20;6.85;;;5.22;;
13051;SDS011;6592;47.484;9.726;2022-09-01T03:01:51;8.48;;;5.32;;
13051;SDS011;6592;47.484;9.726;2022-09-01T03:04:22;8.43;;;5.00;;
13051;SDS011;6592;47.484;9.726;2022-09-01T03:06:52;7.53;;;5.32;;
13051;SDS011;6592;47.484;9.726;2022-09-01T03:09:24;7.10;;;5.40;;
13051;SDS011;6592;47.484;9.726;2022-09-01T03:11:54;8.18;;;5.20;;
13051;SDS011;6592;47.484;9.726;2022-09-01T03:14:23;6.22;;;4.57;;
13051;SDS011;6592;47.484;9.726;2022-09-01T03:16:52;6.97;;;4.43;;
13051;SDS011;6592;47.484;9.726;2022-09-01T03:19:20;6.60;;;4.35;;
13051;SDS011;6592;47.484;9.726;2022-09-01T03:21:49;7.40;;;4.60;;
13051;SDS011;6592;47.484;9.726;2022-09-01T03:24:17;6.70;;;5.22;;
13051;SDS011;6592;47.484;9.726;2022-09-01T03:26:48;5.95;;;4.90;;
13051;SDS011;6592;47.484;9.726;2022-09-01T03:29:19;6.68;;;5.00;;
13051;SDS011;6592;47.484;9.726;2022-09-01T03:31:47;6.22;;;4.90;;
13051;SDS011;6592;47.484;9.726;2022-09-01T03:34:16;6.25;;;4.80;;
13051;SDS011;6592;47.484;9.726;2022-09-01T03:36:49;6.05;;;4.95;;
13051;SDS011;6592;47.484;9.726;2022-09-01T03:39:17;6.88;;;4.82;;
13051;SDS011;6592;47.484;9.726;2022-09-01T03:41:46;7.07;;;4.63;;
13051;SDS011;6592;47.484;9.726;2022-09-01T03:44:15;6.40;;;4.80;;
13051;SDS011;6592;47.484;9.726;2022-09-01T03:46:44;6.32;;;5.10;;
13051;SDS011;6592;47.484;9.726;2022-09-01T03:49:13;6.57;;;4.63;;
13051;SDS011;6592;47.484;9.726;2022-09-01T03:51:50;7.55;;;4.72;;
13051;SDS011;6592;47.484;9.726;2022-09-01T03:54:19;6.53;;;4.70;;
13051;SDS011;6592;47.484;9.726;2022-09-01T03:56:50;6.53;;;4.65;;
13051;SDS011;6592;47.484;9.726;2022-09-01T03:59:21;5.72;;;4.70;;
13051;SDS011;6592;47.484;9.726;2022-09-01T04:01:52;8.15;;;4.88;;
13051;SDS011;6592;47.484;9.726;2022-09-01T04:04:22;5.95;;;4.60;;
13051;SDS011;6592;47.484;9.726;2022-09-01T04:06:51;5.97;;;4.63;;
13051;SDS011;6592;47.484;9.726;2022-09-01T04:09:19;8.98;;;4.68;;
13051;SDS011;6592;47.484;9.726;2022-09-01T04:11:48;6.40;;;4.15;;
13051;SDS011;6592;47.484;9.726;2022-09-01T04:14:17;5.25;;;4.30;;
13051;SDS011;6592;47.484;9.726;2022-09-01T04:16:45;5.72;;;4.45;;
13051;SDS011;6592;47.484;9.726;2022-09-01T04:19:35;5.05;;;4.00;;
13051;SDS011;6592;47.484;9.726;2022-09-01T04:22:05;6.95;;;4.45;;
13051;SDS011;6592;47.484;9.726;2022-09-01T04:24:39;6.40;;;4.00;;
13051;SDS011;6592;47.484;9.726;2022-09-01T04:27:12;6.60;;;4.15;;
13051;SDS011;6592;47.484;9.726;2022-09-01T04:29:44;6.18;;;3.75;;
13051;SDS011;6592;47.484;9.726;2022-09-01T04:32:13;5.05;;;3.90;;
13051;SDS011;6592;47.484;9.726;2022-09-01T04:34:43;5.10;;;3.53;;
13051;SDS011;6592;47.484;9.726;2022-09-01T04:37:13;5.45;;;3.63;;
13051;SDS011;6592;47.484;9.726;2022-09-01T04:39:47;4.70;;;3.90;;
13051;SDS011;6592;47.484;9.726;2022-09-01T04:42:22;5.18;;;3.90;;
13051;SDS011;6592;47.484;9.726;2022-09-01T04:44:53;4.88;;;3.85;;
13051;SDS011;6592;47.484;9.726;2022-09-01T04:47:24;7.10;;;3.97;;
13051;SDS011;6592;47.484;9.726;2022-09-01T04:50:03;5.85;;;3.97;;
13051;SDS011;6592;47.484;9.726;2022-09-01T04:52:40;6.18;;;4.07;;
13051;SDS011;6592;47.484;9.726;2022-09-01T04:55:09;6.20;;;4.15;;
13051;SDS011;6592;47.484;9.726;2022-09-01T04:57:43;6.30;;;4.32;;
13051;SDS011;6592;47.484;9.726;2022-09-01T05:00:15;6.07;;;3.63;;
13051;SDS011;6592;47.484;9.726;2022-09-01T05:02:49;4.82;;;3.65;;
13051;SDS011;6592;47.484;9.726;2022-09-01T05:05:20;4.78;;;3.70;;
13051;SDS011;6592;47.484;9.726;2022-09-01T05:07:50;5.82;;;3.55;;
13051;SDS011;6592;47.484;9.726;2022-09-01T05:10:21;4.75;;;3.55;;
13051;SDS011;6592;47.484;9.726;2022-09-01T05:12:55;5.90;;;3.22;;
13051;SDS011;6592;47.484;9.726;2022-09-01T05:15:23;4.07;;;3.03;;
13051;SDS011;6592;47.484;9.726;2022-09-01T05:17:52;7.32;;;3.50;;
13051;SDS011;6592;47.484;9.726;2022-09-01T05:20:22;5.07;;;3.05;;
13051;SDS011;6592;47.484;9.726;2022-09-01T05:22:55;6.18;;;3.60;;
13051;SDS011;6592;47.484;9.726;2022-09-01T05:25:23;4.22;;;3.40;;
13051;SDS011;6592;47.484;9.726;2022-09-01T05:27:52;4.88;;;3.30;;
13051;SDS011;6592;47.484;9.726;2022-09-01T05:30:22;4.50;;;3.15;;
13051;SDS011;6592;47.484;9.726;2022-09-01T05:32:53;4.45;;;3.35;;
13051;SDS011;6592;47.484;9.726;2022-09-01T05:35:23;5.07;;;3.70;;
13051;SDS011;6592;47.484;9.726;2022-09-01T05:37:58;4.90;;;3.42;;
13051;SDS011;6592;47.484;9.726;2022-09-01T05:40:26;5.70;;;3.30;;
13051;SDS011;6592;47.484;9.726;2022-09-01T05:42:55;6.50;;;3.25;;
13051;SDS011;6592;47.484;9.726;2022-09-01T05:45:23;4.93;;;3.55;;
13051;SDS011;6592;47.484;9.726;2022-09-01T05:47:52;6.10;;;3.35;;
13051;SDS011;6592;47.484;9.726;2022-09-01T05:50:20;4.57;;;3.22;;
13051;SDS011;6592;47.484;9.726;2022-09-01T05:52:50;4.65;;;3.35;;
13051;SDS011;6592;47.484;9.726;2022-09-01T05:55:18;6.53;;;3.33;;
13051;SDS011;6592;47.484;9.726;2022-09-01T05:57:48;6.47;;;3.10;;
13051;SDS011;6592;47.484;9.726;2022-09-01T06:00:16;4.28;;;3.17;;
13051;SDS011;6592;47.484;9.726;2022-09-01T06:02:48;6.78;;;3.45;;
13051;SDS011;6592;47.484;9.726;2022-09-01T06:05:19;5.03;;;3.47;;
13051;SDS011;6592;47.484;9.726;2022-09-01T06:07:47;6.18;;;3.00;;
13051;SDS011;6592;47.484;9.726;2022-09-01T06:10:17;4.00;;;3.00;;
13051;SDS011;6592;47.484;9.726;2022-09-01T06:12:45;4.32;;;3.17;;
13051;SDS011;6592;47.484;9.726;2022-09-01T06:15:19;4.53;;;3.40;;
13051;SDS011;6592;47.484;9.726;2022-09-01T06:17:48;4.22;;;3.10;;
13051;SDS011;6592;47.484;9.726;2022-09-01T06:20:16;3.70;;;3.10;;
13051;SDS011;6592;47.484;9.726;2022-09-01T06:22:45;6.93;;;3.00;;
13051;SDS011;6592;47.484;9.726;2022-09-01T06:25:15;5.55;;;3.30;;
13051;SDS011;6592;47.484;9.726;2022-09-01T06:27:44;5.38;;;2.97;;
13051;SDS011;6592;47.484;9.726;2022-09-01T06:30:14;4.28;;;2.88;;
13051;SDS011;6592;47.484;9.726;2022-09-01T06:32:49;3.85;;;2.80;;
13051;SDS011;6592;47.484;9.726;2022-09-01T06:35:18;5.05;;;3.10;;
13051;SDS011;6592;47.484;9.726;2022-09-01T06:37:47;3.90;;;3.00;;
13051;SDS011;6592;47.484;9.726;2022-09-01T06:40:17;4.30;;;3.00;;
13051;SDS011;6592;47.484;9.726;2022-09-01T06:42:46;5.57;;;2.92;;
13051;SDS011;6592;47.484;9.726;2022-09-01T06:45:17;4.28;;;3.00;;
13051;SDS011;6592;47.484;9.726;2022-09-01T06:47:47;5.53;;;3.10;;
13051;SDS011;6592;47.484;9.726;2022-09-01T06:50:25;6.28;;;3.05;;
13051;SDS011;6592;47.484;9.726;2022-09-01T06:53:15;4.32;;;3.15;;
13051;SDS011;6592;47.484;9.726;2022-09-01T06:56:06;5.70;;;3.10;;
13051;SDS011;6592;47.484;9.726;2022-09-01T06:58:39;5.28;;;3.10;;
13051;SDS011;6592;47.484;9.726;2022-09-01T07:01:10;6.22;;;3.20;;
13051;SDS011;6592;47.484;9.726;2022-09-01T07:03:41;5.95;;;3.90;;
13051;SDS011;6592;47.484;9.726;2022-09-01T07:06:10;7.55;;;3.40;;
13051;SDS011;6592;47.484;9.726;2022-09-01T07:09:00;4.03;;;2.97;;
13051;SDS011;6592;47.484;9.726;2022-09-01T07:11:47;6.38;;;3.17;;
13051;SDS011;6592;47.484;9.726;2022-09-01T07:14:35;5.95;;;3.60;;
13051;SDS011;6592;47.484;9.726;2022-09-01T07:17:24;5.03;;;3.50;;
13051;SDS011;6592;47.484;9.726;2022-09-01T07:19:54;5.20;;;3.17;;
13051;SDS011;6592;47.484;9.726;2022-09-01T07:22:44;4.10;;;2.70;;
13051;SDS011;6592;47.484;9.726;2022-09-01T07:25:32;6.82;;;3.28;;
13051;SDS011;6592;47.484;9.726;2022-09-01T07:28:25;4.35;;;3.42;;
13051;SDS011;6592;47.484;9.726;2022-09-01T07:31:05;5.55;;;3.42;;
13051;SDS011;6592;47.484;9.726;2022-09-01T07:33:55;6.43;;;3.63;;
13051;SDS011;6592;47.484;9.726;2022-09-01T07:36:46;8.45;;;4.10;;
13051;SDS011;6592;47.484;9.726;2022-09-01T07:39:35;9.52;;;4.60;;
13051;SDS011;6592;47.484;9.726;2022-09-01T07:42:24;7.75;;;4.70;;
13051;SDS011;6592;47.484;9.726;2022-09-01T07:45:15;7.72;;;4.40;;
13051;SDS011;6592;47.484;9.726;2022-09-01T07:47:53;7.13;;;4.93;;
13051;SDS011;6592;47.484;9.726;2022-09-01T07:50:22;8.05;;;5.35;;
13051;SDS011;6592;47.484;9.726;2022-09-01T07:53:11;8.10;;;5.85;;
13051;SDS011;6592;47.484;9.726;2022-09-01T07:55:43;8.43;;;6.28;;
13051;SDS011;6592;47.484;9.726;2022-09-01T07:58:16;8.90;;;6.65;;
13051;SDS011;6592;47.484;9.726;2022-09-01T08:00:47;8.98;;;6.38;;
13051;SDS011;6592;47.484;9.726;2022-09-01T08:03:16;7.72;;;5.43;;
13051;SDS011;6592;47.484;9.726;2022-09-01T08:05:45;11.65;;;7.93;;
13051;SDS011;6592;47.484;9.726;2022-09-01T08:08:16;10.80;;;6.70;;
13051;SDS011;6592;47.484;9.726;2022-09-01T08:10:47;10.27;;;6.30;;
13051;SDS011;6592;47.484;9.726;2022-09-01T08:13:16;8.38;;;6.30;;
13051;SDS011;6592;47.484;9.726;2022-09-01T08:15:49;7.53;;;5.82;;
13051;SDS011;6592;47.484;9.726;2022-09-01T08:18:34;6.78;;;5.32;;
13051;SDS011;6592;47.484;9.726;2022-09-01T08:21:18;6.38;;;5.18;;
13051;SDS011;6592;47.484;9.726;2022-09-01T08:23:48;9.73;;;5.22;;
13051;SDS011;6592;47.484;9.726;2022-09-01T08:26:19;9.35;;;5.45;;
13051;SDS011;6592;47.484;9.726;2022-09-01T08:28:48;8.70;;;5.85;;
13051;SDS011;6592;47.484;9.726;2022-09-01T08:31:22;7.60;;;6.07;;
13051;SDS011;6592;47.484;9.726;2022-09-01T08:33:56;7.60;;;5.88;;
13051;SDS011;6592;47.484;9.726;2022-09-01T08:36:25;6.13;;;5.13;;
13051;SDS011;6592;47.484;9.726;2022-09-01T08:38:53;6.97;;;5.60;;
13051;SDS011;6592;47.484;9.726;2022-09-01T08:41:25;11.50;;;8.25;;
13051;SDS011;6592;47.484;9.726;2022-09-01T08:44:04;9.38;;;6.97;;
13051;SDS011;6592;47.484;9.726;2022-09-01T08:46:38;10.02;;;6.35;;
13051;SDS011;6592;47.484;9.726;2022-09-01T08:49:11;7.72;;;6.35;;
13051;SDS011;6592;47.484;9.726;2022-09-01T08:51:52;15.88;;;11.50;;
13051;SDS011;6592;47.484;9.726;2022-09-01T08:54:28;10.48;;;7.10;;
13051;SDS011;6592;47.484;9.726;2022-09-01T08:57:04;6.35;;;5.22;;
13051;SDS011;6592;47.484;9.726;2022-09-01T08:59:35;6.60;;;5.00;;
13051;SDS011;6592;47.484;9.726;2022-09-01T09:02:12;6.18;;;4.68;;
13051;SDS011;6592;47.484;9.726;2022-09-01T09:04:52;6.80;;;5.30;;
13051;SDS011;6592;47.484;9.726;2022-09-01T09:07:32;7.22;;;5.13;;
13051;SDS011;6592;47.484;9.726;2022-09-01T09:10:34;6.13;;;5.07;;
13051;SDS011;6592;47.484;9.726;2022-09-01T09:13:14;6.57;;;4.85;;
13051;SDS011;6592;47.484;9.726;2022-09-01T09:15:49;6.03;;;4.60;;
13051;SDS011;6592;47.484;9.726;2022-09-01T09:18:41;6.90;;;4.78;;
13051;SDS011;6592;47.484;9.726;2022-09-01T09:21:23;6.70;;;4.10;;
13051;SDS011;6592;47.484;9.726;2022-09-01T09:23:57;7.68;;;3.88;;
13051;SDS011;6592;47.484;9.726;2022-09-01T09:26:32;5.18;;;4.07;;
13051;SDS011;6592;47.484;9.726;2022-09-01T09:29:08;5.60;;;3.80;;
13051;SDS011;6592;47.484;9.726;2022-09-01T09:31:37;5.20;;;4.13;;
13051;SDS011;6592;47.484;9.726;2022-09-01T09:34:16;6.20;;;3.97;;
13051;SDS011;6592;47.484;9.726;2022-09-01T09:36:59;7.03;;;4.00;;
13051;SDS011;6592;47.484;9.726;2022-09-01T09:39:42;5.18;;;4.10;;
13051;SDS011;6592;47.484;9.726;2022-09-01T09:42:11;5.45;;;3.72;;
13051;SDS011;6592;47.484;9.726;2022-09-01T09:44:42;5.43;;;3.60;;
13051;SDS011;6592;47.484;9.726;2022-09-01T09:50:15;5.32;;;3.63;;
13051;SDS011;6592;47.484;9.726;2022-09-01T09:52:46;5.50;;;3.42;;
13051;SDS011;6592;47.484;9.726;2022-09-01T09:55:18;7.82;;;3.90;;
13051;SDS011;6592;47.484;9.726;2022-09-01T09:57:52;5.80;;;2.92;;
13051;SDS011;6592;47.484;9.726;2022-09-01T10:00:23;3.58;;;3.10;;
13051;SDS011;6592;47.484;9.726;2022-09-01T10:02:55;3.80;;;3.00;;
13051;SDS011;6592;47.484;9.726;2022-09-01T10:05:37;4.10;;;3.20;;
13051;SDS011;6592;47.484;9.726;2022-09-01T10:08:10;3.75;;;3.20;;
13051;SDS011;6592;47.484;9.726;2022-09-01T10:10:41;4.07;;;3.10;;
13051;SDS011;6592;47.484;9.726;2022-09-01T10:13:23;4.13;;;2.90;;
13051;SDS011;6592;47.484;9.726;2022-09-01T10:15:59;6.15;;;3.20;;
13051;SDS011;6592;47.484;9.726;2022-09-01T10:18:32;6.03;;;3.30;;
13051;SDS011;6592;47.484;9.726;2022-09-01T10:21:07;3.75;;;2.80;;
13051;SDS011;6592;47.484;9.726;2022-09-01T10:23:40;4.82;;;2.95;;
13051;SDS011;6592;47.484;9.726;2022-09-01T10:26:12;4.72;;;3.03;;
13051;SDS011;6592;47.484;9.726;2022-09-01T10:28:45;6.90;;;3.15;;
13051;SDS011;6592;47.484;9.726;2022-09-01T10:31:18;3.80;;;2.97;;
13051;SDS011;6592;47.484;9.726;2022-09-01T10:33:48;5.15;;;2.88;;
13051;SDS011;6592;47.484;9.726;2022-09-01T10:36:18;3.35;;;2.88;;
13051;SDS011;6592;47.484;9.726;2022-09-01T10:38:50;3.60;;;2.80;;
13051;SDS011;6592;47.484;9.726;2022-09-01T10:41:45;4.13;;;3.20;;
13051;SDS011;6592;47.484;9.726;2022-09-01T10:44:26;3.70;;;2.88;;
13051;SDS011;6592;47.484;9.726;2022-09-01T10:47:00;3.60;;;2.80;;
13051;SDS011;6592;47.484;9.726;2022-09-01T10:52:53;4.68;;;2.80;;
13051;SDS011;6592;47.484;9.726;2022-09-01T10:58:18;3.30;;;2.70;;
13051;SDS011;6592;47.484;9.726;2022-09-01T11:07:40;3.22;;;2.65;;
13051;SDS011;6592;47.484;9.726;2022-09-01T11:10:34;3.47;;;2.65;;
13051;SDS011;6592;47.484;9.726;2022-09-01T11:13:30;3.90;;;2.38;;
13051;SDS011;6592;47.484;9.726;2022-09-01T11:16:24;3.65;;;2.38;;
13051;SDS011;6592;47.484;9.726;2022-09-01T11:19:16;3.42;;;3.00;;
13051;SDS011;6592;47.484;9.726;2022-09-01T11:22:19;3.70;;;3.03;;
13051;SDS011;6592;47.484;9.726;2022-09-01T11:28:08;3.28;;;2.58;;
13051;SDS011;6592;47.484;9.726;2022-09-01T11:30:53;4.78;;;2.80;;
13051;SDS011;6592;47.484;9.726;2022-09-01T11:33:27;3.38;;;2.30;;
13051;SDS011;6592;47.484;9.726;2022-09-01T11:36:06;3.40;;;2.55;;
13051;SDS011;6592;47.484;9.726;2022-09-01T11:38:42;4.20;;;2.40;;
13051;SDS011;6592;47.484;9.726;2022-09-01T11:41:19;3.78;;;2.60;;
13051;SDS011;6592;47.484;9.726;2022-09-01T11:43:52;3.08;;;2.65;;
13051;SDS011;6592;47.484;9.726;2022-09-01T11:46:25;3.22;;;2.55;;
13051;SDS011;6592;47.484;9.726;2022-09-01T11:48:55;3.75;;;2.60;;
13051;SDS011;6592;47.484;9.726;2022-09-01T11:51:24;3.07;;;2.73;;
13051;SDS011;6592;47.484;9.726;2022-09-01T11:53:57;3.10;;;2.67;;
13051;SDS011;6592;47.484;9.726;2022-09-01T11:56:27;4.82;;;2.58;;
13051;SDS011;6592;47.484;9.726;2022-09-01T11:58:57;3.80;;;3.10;;
13051;SDS011;6592;47.484;9.726;2022-09-01T12:01:30;2.95;;;2.50;;
13051;SDS011;6592;47.484;9.726;2022-09-01T12:06:51;3.05;;;2.20;;
13051;SDS011;6592;47.484;9.726;2022-09-01T12:09:30;2.78;;;2.33;;
13051;SDS011;6592;47.484;9.726;2022-09-01T12:11:59;2.65;;;2.42;;
13051;SDS011;6592;47.484;9.726;2022-09-01T12:14:29;3.25;;;2.30;;
13051;SDS011;6592;47.484;9.726;2022-09-01T12:17:18;3.20;;;2.40;;
13051;SDS011;6592;47.484;9.726;2022-09-01T12:19:47;6.22;;;2.67;;
13051;SDS011;6592;47.484;9.726;2022-09-01T12:22:16;2.75;;;2.47;;
13051;SDS011;6592;47.484;9.726;2022-09-01T12:24:47;2.90;;;2.40;;
13051;SDS011;6592;47.484;9.726;2022-09-01T12:29:47;3.72;;;2.60;;
13051;SDS011;6592;47.484;9.726;2022-09-01T12:32:16;4.57;;;4.10;;
13051;SDS011;6592;47.484;9.726;2022-09-01T12:34:47;2.88;;;2.45;;
13051;SDS011;6592;47.484;9.726;2022-09-01T12:37:27;2.85;;;2.40;;
13051;SDS011;6592;47.484;9.726;2022-09-01T12:39:56;3.97;;;2.53;;
13051;SDS011;6592;47.484;9.726;2022-09-01T12:42:26;4.18;;;2.47;;
13051;SDS011;6592;47.484;9.726;2022-09-01T12:45:08;3.85;;;2.50;;
13051;SDS011;6592;47.484;9.726;2022-09-01T12:47:45;3.58;;;2.53;;
13051;SDS011;6592;47.484;9.726;2022-09-01T12:53:16;3.03;;;2.10;;
13051;SDS011;6592;47.484;9.726;2022-09-01T12:55:53;4.40;;;2.42;;
13051;SDS011;6592;47.484;9.726;2022-09-01T12:58:26;3.15;;;2.60;;
13051;SDS011;6592;47.484;9.726;2022-09-01T13:03:28;4.47;;;2.17;;
13051;SDS011;6592;47.484;9.726;2022-09-01T13:06:00;2.90;;;2.47;;
13051;SDS011;6592;47.484;9.726;2022-09-01T13:08:30;2.70;;;2.05;;
13051;SDS011;6592;47.484;9.726;2022-09-01T13:11:01;3.33;;;2.50;;
13051;SDS011;6592;47.484;9.726;2022-09-01T13:13:31;3.42;;;2.30;;
13051;SDS011;6592;47.484;9.726;2022-09-01T13:16:02;3.88;;;2.47;;
13051;SDS011;6592;47.484;9.726;2022-09-01T13:18:35;2.63;;;2.15;;
13051;SDS011;6592;47.484;9.726;2022-09-01T13:21:25;4.00;;;2.25;;
13051;SDS011;6592;47.484;9.726;2022-09-01T13:23:54;2.50;;;2.10;;
13051;SDS011;6592;47.484;9.726;2022-09-01T13:26:23;4.00;;;2.00;;
13051;SDS011;6592;47.484;9.726;2022-09-01T13:28:51;2.47;;;1.90;;
13051;SDS011;6592;47.484;9.726;2022-09-01T13:31:21;2.53;;;1.85;;
13051;SDS011;6592;47.484;9.726;2022-09-01T13:33:57;2.42;;;1.77;;
13051;SDS011;6592;47.484;9.726;2022-09-01T13:36:46;2.85;;;1.80;;
13051;SDS011;6592;47.484;9.726;2022-09-01T13:39:18;2.53;;;1.90;;
13051;SDS011;6592;47.484;9.726;2022-09-01T13:41:48;3.78;;;2.00;;
13051;SDS011;6592;47.484;9.726;2022-09-01T13:44:16;3.80;;;1.92;;
13051;SDS011;6592;47.484;9.726;2022-09-01T13:46:46;2.65;;;1.90;;
13051;SDS011;6592;47.484;9.726;2022-09-01T13:49:34;3.35;;;1.73;;
13051;SDS011;6592;47.484;9.726;2022-09-01T13:52:23;2.05;;;1.77;;
13051;SDS011;6592;47.484;9.726;2022-09-01T13:54:51;3.60;;;1.80;;
13051;SDS011;6592;47.484;9.726;2022-09-01T13:57:19;2.30;;;1.60;;
13051;SDS011;6592;47.484;9.726;2022-09-01T13:59:48;2.75;;;1.33;;
13051;SDS011;6592;47.484;9.726;2022-09-01T14:02:17;2.92;;;1.60;;
13051;SDS011;6592;47.484;9.726;2022-09-01T14:04:46;2.40;;;1.80;;
13051;SDS011;6592;47.484;9.726;2022-09-01T14:07:14;2.35;;;1.65;;
13051;SDS011;6592;47.484;9.726;2022-09-01T14:09:44;2.90;;;1.80;;
13051;SDS011;6592;47.484;9.726;2022-09-01T14:12:12;2.13;;;1.60;;
13051;SDS011;6592;47.484;9.726;2022-09-01T14:14:41;2.00;;;1.60;;
13051;SDS011;6592;47.484;9.726;2022-09-01T14:17:30;2.60;;;1.60;;
13051;SDS011;6592;47.484;9.726;2022-09-01T14:19:59;2.58;;;1.45;;
13051;SDS011;6592;47.484;9.726;2022-09-01T14:22:27;2.08;;;1.42;;
13051;SDS011;6592;47.484;9.726;2022-09-01T14:25:00;2.53;;;1.40;;
13051;SDS011;6592;47.484;9.726;2022-09-01T14:27:28;2.20;;;1.40;;
13051;SDS011;6592;47.484;9.726;2022-09-01T14:29:57;2.72;;;1.50;;
13051;SDS011;6592;47.484;9.726;2022-09-01T14:32:26;1.80;;;1.30;;
13051;SDS011;6592;47.484;9.726;2022-09-01T14:34:56;2.65;;;1.60;;
13051;SDS011;6592;47.484;9.726;2022-09-01T14:37:24;1.80;;;1.50;;
13051;SDS011;6592;47.484;9.726;2022-09-01T14:39:54;3.58;;;1.50;;
13051;SDS011;6592;47.484;9.726;2022-09-01T14:42:23;1.95;;;1.60;;
13051;SDS011;6592;47.484;9.726;2022-09-01T14:44:54;2.05;;;1.50;;
13051;SDS011;6592;47.484;9.726;2022-09-01T14:47:23;3.05;;;1.80;;
13051;SDS011;6592;47.484;9.726;2022-09-01T14:49:51;3.47;;;1.70;;
13051;SDS011;6592;47.484;9.726;2022-09-01T14:52:21;3.83;;;1.80;;
13051;SDS011;6592;47.484;9.726;2022-09-01T14:54:50;2.50;;;2.00;;
13051;SDS011;6592;47.484;9.726;2022-09-01T14:57:18;3.22;;;1.90;;
13051;SDS011;6592;47.484;9.726;2022-09-01T15:00:04;3.45;;;2.08;;
13051;SDS011;6592;47.484;9.726;2022-09-01T15:02:35;3.55;;;1.90;;
13051;SDS011;6592;47.484;9.726;2022-09-01T15:05:04;3.05;;;1.70;;
13051;SDS011;6592;47.484;9.726;2022-09-01T15:07:35;4.40;;;1.77;;
13051;SDS011;6592;47.484;9.726;2022-09-01T15:10:05;3.07;;;1.90;;
13051;SDS011;6592;47.484;9.726;2022-09-01T15:12:41;2.10;;;1.80;;
13051;SDS011;6592;47.484;9.726;2022-09-01T15:15:10;3.47;;;1.77;;
13051;SDS011;6592;47.484;9.726;2022-09-01T15:17:38;2.47;;;1.90;;
13051;SDS011;6592;47.484;9.726;2022-09-01T15:20:11;2.38;;;1.95;;
13051;SDS011;6592;47.484;9.726;2022-09-01T15:22:59;2.55;;;2.00;;
13051;SDS011;6592;47.484;9.726;2022-09-01T15:25:28;3.33;;;2.10;;
13051;SDS011;6592;47.484;9.726;2022-09-01T15:27:56;2.97;;;2.22;;
13051;SDS011;6592;47.484;9.726;2022-09-01T15:30:25;4.38;;;2.10;;
13051;SDS011;6592;47.484;9.726;2022-09-01T15:32:53;3.70;;;2.03;;
13051;SDS011;6592;47.484;9.726;2022-09-01T15:35:22;2.60;;;2.13;;
13051;SDS011;6592;47.484;9.726;2022-09-01T15:37:50;3.70;;;2.30;;
13051;SDS011;6592;47.484;9.726;2022-09-01T15:40:21;2.95;;;2.03;;
13051;SDS011;6592;47.484;9.726;2022-09-01T15:42:50;3.08;;;1.90;;
13051;SDS011;6592;47.484;9.726;2022-09-01T15:45:19;2.90;;;2.10;;
13051;SDS011;6592;47.484;9.726;2022-09-01T15:47:49;4.27;;;2.20;;
13051;SDS011;6592;47.484;9.726;2022-09-01T15:50:19;2.67;;;2.13;;
13051;SDS011;6592;47.484;9.726;2022-09-01T15:52:54;3.03;;;2.33;;
13051;SDS011;6592;47.484;9.726;2022-09-01T15:55:26;3.05;;;2.30;;
13051;SDS011;6592;47.484;9.726;2022-09-01T15:57:57;3.00;;;2.45;;
13051;SDS011;6592;47.484;9.726;2022-09-01T16:00:26;3.30;;;2.55;;
13051;SDS011;6592;47.484;9.726;2022-09-01T16:02:56;3.33;;;2.55;;
13051;SDS011;6592;47.484;9.726;2022-09-01T16:05:27;4.82;;;2.45;;
13051;SDS011;6592;47.484;9.726;2022-09-01T16:07:56;2.95;;;2.30;;